createdAt,value
2022-08-31T00:03:54.304Z,100543.69
2022-08-31T00:08:57.604Z,100543.72
2022-08-31T00:14:01.831Z,100539.00
2022-08-31T00:19:05.369Z,100519.03
2022-08-31T00:24:07.376Z,100510.09
2022-08-31T00:29:09.250Z,100501.22
2022-08-31T00:34:10.983Z,100482.91
2022-08-31T00:39:14.103Z,100477.38
2022-08-31T00:44:15.913Z,100479.00
2022-08-31T00:49:30.026Z,100479.59
2022-08-31T00:54:35.649Z,100476.53
2022-08-31T00:59:39.642Z,100467.66
2022-08-31T01:04:41.224Z,100468.19
2022-08-31T01:09:55.378Z,100475.69
2022-08-31T01:14:59.555Z,100475.94
2022-08-31T01:20:24.747Z,100490.63
2022-08-31T01:25:33.418Z,100483.94
2022-08-31T01:30:36.604Z,100486.72
2022-08-31T01:35:40.251Z,100490.91
2022-08-31T01:41:02.282Z,100482.03
2022-08-31T01:46:10.116Z,100472.88
2022-08-31T01:51:15.036Z,100464.59
2022-08-31T01:56:24.689Z,100457.94
2022-08-31T02:01:36.639Z,100449.63
2022-08-31T02:06:45.912Z,100437.41
2022-08-31T02:11:47.666Z,100424.13
2022-08-31T02:16:49.350Z,100429.63
2022-08-31T02:21:51.215Z,100423.53
2022-08-31T02:26:53.988Z,100422.13
2022-08-31T02:31:56.940Z,100419.31
2022-08-31T02:36:58.804Z,100408.50
2022-08-31T02:42:00.789Z,100415.63
2022-08-31T02:47:02.485Z,100420.59
2022-08-31T02:52:31.396Z,100433.34
2022-08-31T02:57:33.167Z,100423.38
2022-08-31T03:02:35.958Z,100420.31
2022-08-31T03:07:38.572Z,100414.50
2022-08-31T03:12:40.200Z,100410.59
2022-08-31T03:17:42.405Z,100420.28
2022-08-31T03:22:45.816Z,100419.16
2022-08-31T03:27:48.570Z,100418.81
2022-08-31T03:32:51.102Z,100412.72
2022-08-31T03:37:54.145Z,100415.19
2022-08-31T03:42:57.979Z,100426.81
2022-08-31T03:48:01.053Z,100440.91
2022-08-31T03:53:04.787Z,100453.09
2022-08-31T03:58:06.902Z,100460.84
2022-08-31T04:03:08.579Z,100467.28
2022-08-31T04:08:31.379Z,100483.13
2022-08-31T04:14:02.283Z,100499.97
2022-08-31T04:19:15.914Z,100496.38
2022-08-31T04:24:32.172Z,100508.84
2022-08-31T04:29:34.790Z,100524.63
2022-08-31T04:34:36.379Z,100530.72
2022-08-31T04:39:50.388Z,100527.44
2022-08-31T04:44:52.646Z,100539.91
2022-08-31T04:49:54.255Z,100549.06
2022-08-31T04:54:56.017Z,100556.03
2022-08-31T04:59:57.717Z,100564.09
2022-08-31T05:05:17.985Z,100566.34
2022-08-31T05:10:21.597Z,100577.41
2022-08-31T05:15:23.347Z,100580.72
2022-08-31T05:20:25.307Z,100580.16
2022-08-31T05:25:27.472Z,100582.63
2022-08-31T05:30:29.098Z,100572.38
2022-08-31T05:35:40.839Z,100585.16
2022-08-31T05:40:42.477Z,100600.63
2022-08-31T05:45:44.495Z,100600.91
2022-08-31T05:50:46.281Z,100607.84
2022-08-31T05:55:47.851Z,100606.75
2022-08-31T06:00:49.426Z,100610.06
2022-08-31T06:06:09.841Z,100609.28
2022-08-31T06:11:15.730Z,100614.03
2022-08-31T06:16:18.192Z,100613.25
2022-08-31T06:21:23.630Z,100627.09
2022-08-31T06:26:28.946Z,100617.41
2022-08-31T06:31:35.976Z,100618.53
2022-08-31T06:36:38.413Z,100622.97
2022-08-31T06:42:15.150Z,100625.75
2022-08-31T06:47:35.209Z,100628.53
2022-08-31T06:52:39.004Z,100615.81
2022-08-31T06:57:54.465Z,100614.16
2022-08-31T07:03:21.877Z,100606.19
2022-08-31T07:08:24.103Z,100612.03
2022-08-31T07:13:26.653Z,100606.78
2022-08-31T07:18:28.335Z,100616.47
2022-08-31T07:23:30.210Z,100625.09
2022-08-31T07:28:43.253Z,100627.63
2022-08-31T07:33:45.948Z,100626.47
2022-08-31T07:39:06.518Z,100630.13
2022-08-31T07:44:11.243Z,100642.06
2022-08-31T07:49:13.932Z,100647.41
2022-08-31T07:54:20.601Z,100648.81
2022-08-31T07:59:42.465Z,100650.78
2022-08-31T08:04:44.176Z,100663.00
2022-08-31T08:10:09.205Z,100652.75
2022-08-31T08:15:40.807Z,100659.44
2022-08-31T08:20:48.679Z,100673.34
2022-08-31T08:25:51.590Z,100666.66
2022-08-31T08:31:11.567Z,100679.34
2022-08-31T08:36:20.202Z,100688.47
2022-08-31T08:41:25.303Z,100687.59
2022-08-31T08:46:40.167Z,100704.53
2022-08-31T08:51:43.702Z,100708.34
2022-08-31T08:56:49.074Z,100716.63
2022-08-31T09:02:06.583Z,100729.47
2022-08-31T09:07:30.824Z,100733.06
2022-08-31T09:12:44.431Z,100732.84
2022-08-31T09:17:52.029Z,100738.28
2022-08-31T09:22:56.051Z,100737.16
2022-08-31T09:28:01.619Z,100739.97
2022-08-31T09:33:04.054Z,100748.75
2022-08-31T09:38:11.119Z,100759.84
2022-08-31T09:43:24.959Z,100762.47
2022-08-31T09:48:53.251Z,100728.78
2022-08-31T09:54:18.227Z,100726.47
2022-08-31T09:59:40.232Z,100712.13
2022-08-31T10:04:57.447Z,100714.81
2022-08-31T10:10:28.069Z,100704.81
2022-08-31T10:15:44.947Z,100707.84
2022-08-31T10:20:56.891Z,100720.88
2022-08-31T10:26:05.566Z,100720.00
2022-08-31T10:31:21.024Z,100728.81
2022-08-31T10:36:25.254Z,100737.06
2022-08-31T10:41:32.935Z,100727.94
2022-08-31T10:46:35.597Z,100728.75
2022-08-31T10:51:49.101Z,100733.69
2022-08-31T10:57:09.479Z,100737.38
2022-08-31T11:02:26.009Z,100747.53
2022-08-31T11:07:41.186Z,100740.25
2022-08-31T11:12:55.128Z,100745.81
2022-08-31T11:18:13.535Z,100740.25
2022-08-31T11:23:33.432Z,100738.75
2022-08-31T11:28:51.852Z,100733.44
2022-08-31T11:34:15.505Z,100735.69
2022-08-31T11:39:38.025Z,100729.50
2022-08-31T11:44:39.635Z,100726.25
2022-08-31T11:49:50.270Z,100722.75
2022-08-31T11:54:52.639Z,100717.00
2022-08-31T11:59:56.016Z,100718.97
2022-08-31T12:05:03.358Z,100710.41
2022-08-31T12:10:14.107Z,100714.03
2022-08-31T12:15:31.946Z,100710.19
2022-08-31T12:21:16.866Z,100711.00
2022-08-31T12:26:46.530Z,100703.31
2022-08-31T12:32:08.708Z,100691.38
2022-08-31T12:37:21.285Z,100694.19
2022-08-31T12:42:23.784Z,100690.53
2022-08-31T12:47:40.273Z,100696.31
2022-08-31T12:52:53.661Z,100694.34
2022-08-31T12:58:13.931Z,100699.88
2022-08-31T13:03:21.540Z,100691.72
2022-08-31T13:08:25.864Z,100693.94
2022-08-31T13:13:29.236Z,100696.06
2022-08-31T13:18:31.306Z,100697.97
2022-08-31T13:23:42.927Z,100699.91
2022-08-31T13:28:50.180Z,100690.50
2022-08-31T13:33:53.129Z,100678.31
2022-08-31T13:38:54.707Z,100667.88
2022-08-31T13:44:02.559Z,100665.56
2022-08-31T13:49:20.741Z,100673.28
2022-08-31T13:54:34.007Z,100662.94
2022-08-31T13:59:38.711Z,100654.44
2022-08-31T14:04:49.142Z,100651.56
2022-08-31T14:10:02.024Z,100648.56
2022-08-31T14:15:08.397Z,100648.84
2022-08-31T14:20:33.910Z,100650.38
2022-08-31T14:25:35.530Z,100640.13
2022-08-31T14:30:37.208Z,100629.16
2022-08-31T14:35:40.106Z,100636.06
2022-08-31T14:40:43.834Z,100631.41
2022-08-31T14:45:45.511Z,100629.06
2022-08-31T14:50:47.092Z,100620.19
2022-08-31T14:55:48.798Z,100617.44
2022-08-31T15:00:53.708Z,100613.53
2022-08-31T15:06:03.314Z,100612.16
2022-08-31T15:11:06.135Z,100617.50
2022-08-31T15:16:10.873Z,100592.03
2022-08-31T15:21:12.552Z,100590.38
2022-08-31T15:26:16.984Z,100594.19
2022-08-31T15:31:25.388Z,100598.56
2022-08-31T15:36:27.771Z,100599.31
2022-08-31T15:41:29.883Z,100590.16
2022-08-31T15:46:51.681Z,100598.66
2022-08-31T15:51:54.009Z,100587.13
2022-08-31T15:56:55.712Z,100597.22
2022-08-31T16:01:57.543Z,100594.03
2022-08-31T16:07:00.977Z,100585.34
2022-08-31T16:12:02.846Z,100578.69
2022-08-31T16:17:09.459Z,100560.38
2022-08-31T16:22:11.250Z,100564.22
2022-08-31T16:27:16.445Z,100558.66
2022-08-31T16:32:19.268Z,100553.56
2022-08-31T16:37:21.264Z,100558.84
2022-08-31T16:42:22.901Z,100557.25
2022-08-31T16:47:24.501Z,100564.03
2022-08-31T16:52:27.410Z,100561.56
2022-08-31T16:57:32.545Z,100557.22
2022-08-31T17:02:34.353Z,100566.81
2022-08-31T17:07:36.803Z,100568.56
2022-08-31T17:12:42.011Z,100549.44
2022-08-31T17:17:47.953Z,100550.44
2022-08-31T17:22:50.874Z,100543.88
2022-08-31T17:27:56.159Z,100551.19
2022-08-31T17:33:01.439Z,100548.75
2022-08-31T17:38:03.325Z,100557.44
2022-08-31T17:43:04.954Z,100552.28
2022-08-31T17:48:06.615Z,100555.41
2022-08-31T17:53:08.307Z,100561.56
2022-08-31T17:58:11.202Z,100548.03
2022-08-31T18:03:12.819Z,100545.81
2022-08-31T18:08:15.090Z,100550.84
2022-08-31T18:13:16.744Z,100546.97
2022-08-31T18:18:18.739Z,100556.69
2022-08-31T18:23:20.591Z,100563.38
2022-08-31T18:28:22.277Z,100565.63
2022-08-31T18:33:24.627Z,100557.31
2022-08-31T18:38:27.283Z,100566.47
2022-08-31T18:43:47.290Z,100568.13
2022-08-31T18:48:54.200Z,100569.50
2022-08-31T18:53:55.975Z,100568.13
2022-08-31T18:58:58.116Z,100567.03
2022-08-31T19:04:02.475Z,100572.81
2022-08-31T19:09:04.213Z,100572.75
2022-08-31T19:14:05.821Z,100573.31
2022-08-31T19:19:08.161Z,100567.16
2022-08-31T19:24:13.214Z,100569.91
2022-08-31T19:29:22.814Z,100564.25
2022-08-31T19:34:27.663Z,100557.78
2022-08-31T19:39:31.771Z,100561.53
2022-08-31T19:50:13.616Z,100560.50
2022-08-31T19:55:15.586Z,100560.06
2022-08-31T20:00:17.346Z,100556.06
2022-08-31T20:05:20.885Z,100557.66
2022-08-31T20:10:24.936Z,100552.81
2022-08-31T20:15:36.928Z,100550.47
2022-08-31T20:20:48.287Z,100549.22
2022-08-31T20:25:55.493Z,100540.59
2022-08-31T20:31:00.029Z,100546.84
2022-08-31T20:36:11.601Z,100548.63
2022-08-31T20:41:14.193Z,100549.94
2022-08-31T20:46:34.237Z,100546.78
2022-08-31T20:51:40.465Z,100551.94
2022-08-31T20:56:43.042Z,100557.06
2022-08-31T21:01:45.962Z,100560.59
2022-08-31T21:06:47.621Z,100546.72
2022-08-31T21:11:49.990Z,100549.41
2022-08-31T21:16:52.871Z,100549.75
2022-08-31T21:22:00.833Z,100549.34
2022-08-31T21:27:05.726Z,100549.19
2022-08-31T21:32:10.258Z,100546.94
2022-08-31T21:37:12.146Z,100544.47
2022-08-31T21:42:13.700Z,100550.81
2022-08-31T21:47:15.279Z,100553.06
2022-08-31T21:52:17.208Z,100557.81
2022-08-31T21:57:18.880Z,100562.50
2022-08-31T22:02:20.479Z,100566.59
2022-08-31T22:07:22.045Z,100569.09
2022-08-31T22:12:25.205Z,100570.91
2022-08-31T22:17:48.251Z,100573.25
2022-08-31T22:22:48.645Z,100575.06
2022-08-31T22:27:51.302Z,100576.94
2022-08-31T22:32:53.839Z,100571.72
2022-08-31T22:37:55.402Z,100575.06
2022-08-31T22:42:58.581Z,100566.94
2022-08-31T22:48:00.569Z,100571.75
2022-08-31T22:53:02.141Z,100574.16
2022-08-31T22:58:04.571Z,100572.53
2022-08-31T23:03:06.647Z,100565.97
2022-08-31T23:08:08.422Z,100558.34
2022-08-31T23:13:10.054Z,100556.16
2022-08-31T23:18:13.388Z,100552.84
2022-08-31T23:23:15.121Z,100548.94
2022-08-31T23:28:16.691Z,100548.44
2022-08-31T23:33:19.914Z,100536.00
2022-08-31T23:38:23.060Z,100534.78
2022-08-31T23:43:25.924Z,100541.09
2022-08-31T23:48:28.827Z,100528.50
2022-08-31T23:53:30.363Z,100530.47
2022-08-31T23:58:36.127Z,100542.66
